sensor_id;sensor_type;location;lat;lon;timestamp;P1;durP1;ratioP1;P2;durP2;ratioP2
48951;SDS011;34758;42.148;24.744;2023-11-22T00:01:22;23.48;;;14.05;;
48951;SDS011;34758;42.148;24.744;2023-11-22T00:03:50;23.58;;;14.07;;
48951;SDS011;34758;42.148;24.744;2023-11-22T00:06:19;23.30;;;15.38;;
48951;SDS011;34758;42.148;24.744;2023-11-22T00:08:47;23.15;;;14.05;;
48951;SDS011;34758;42.148;24.744;2023-11-22T00:11:14;20.88;;;14.13;;
48951;SDS011;34758;42.148;24.744;2023-11-22T00:13:42;28.23;;;15.27;;
48951;SDS011;34758;42.148;24.744;2023-11-22T00:16:09;23.05;;;14.32;;
48951;SDS011;34758;42.148;24.744;2023-11-22T00:18:37;25.52;;;14.60;;
48951;SDS011;34758;42.148;24.744;2023-11-22T00:21:04;19.73;;;13.50;;
48951;SDS011;34758;42.148;24.744;2023-11-22T00:23:35;25.70;;;14.73;;
48951;SDS011;34758;42.148;24.744;2023-11-22T00:26:02;22.27;;;14.55;;
48951;SDS011;34758;42.148;24.744;2023-11-22T00:28:31;26.52;;;15.80;;
48951;SDS011;34758;42.148;24.744;2023-11-22T00:30:58;20.13;;;13.93;;
48951;SDS011;34758;42.148;24.744;2023-11-22T00:33:27;26.02;;;14.80;;
48951;SDS011;34758;42.148;24.744;2023-11-22T00:35:54;25.65;;;15.63;;
48951;SDS011;34758;42.148;24.744;2023-11-22T00:38:22;22.83;;;15.05;;
48951;SDS011;34758;42.148;24.744;2023-11-22T00:40:52;29.95;;;16.02;;
48951;SDS011;34758;42.148;24.744;2023-11-22T00:43:19;25.95;;;15.43;;
48951;SDS011;34758;42.148;24.744;2023-11-22T00:45:47;25.75;;;15.43;;
48951;SDS011;34758;42.148;24.744;2023-11-22T00:48:16;27.38;;;16.67;;
48951;SDS011;34758;42.148;24.744;2023-11-22T00:50:46;34.10;;;16.40;;
48951;SDS011;34758;42.148;24.744;2023-11-22T00:53:15;24.33;;;15.75;;
48951;SDS011;34758;42.148;24.744;2023-11-22T00:55:42;26.52;;;16.00;;
48951;SDS011;34758;42.148;24.744;2023-11-22T00:58:11;23.02;;;15.68;;
48951;SDS011;34758;42.148;24.744;2023-11-22T01:00:38;24.52;;;15.40;;
48951;SDS011;34758;42.148;24.744;2023-11-22T01:03:06;23.25;;;14.68;;
48951;SDS011;34758;42.148;24.744;2023-11-22T01:05:37;23.20;;;15.32;;
48951;SDS011;34758;42.148;24.744;2023-11-22T01:08:06;28.85;;;15.35;;
48951;SDS011;34758;42.148;24.744;2023-11-22T01:10:33;21.42;;;12.77;;
48951;SDS011;34758;42.148;24.744;2023-11-22T01:13:00;19.20;;;14.07;;
48951;SDS011;34758;42.148;24.744;2023-11-22T01:15:31;25.38;;;14.00;;
48951;SDS011;34758;42.148;24.744;2023-11-22T01:17:58;20.08;;;13.43;;
48951;SDS011;34758;42.148;24.744;2023-11-22T01:20:26;28.08;;;15.25;;
48951;SDS011;34758;42.148;24.744;2023-11-22T01:22:53;20.85;;;12.85;;
48951;SDS011;34758;42.148;24.744;2023-11-22T01:25:21;22.55;;;13.75;;
48951;SDS011;34758;42.148;24.744;2023-11-22T01:27:50;22.80;;;13.68;;
48951;SDS011;34758;42.148;24.744;2023-11-22T01:30:21;21.20;;;13.93;;
48951;SDS011;34758;42.148;24.744;2023-11-22T01:32:51;22.47;;;13.33;;
48951;SDS011;34758;42.148;24.744;2023-11-22T01:35:20;18.98;;;13.32;;
48951;SDS011;34758;42.148;24.744;2023-11-22T01:37:49;19.65;;;13.73;;
48951;SDS011;34758;42.148;24.744;2023-11-22T01:40:20;20.25;;;13.45;;
48951;SDS011;34758;42.148;24.744;2023-11-22T01:42:48;26.90;;;13.85;;
48951;SDS011;34758;42.148;24.744;2023-11-22T01:45:25;21.35;;;14.45;;
48951;SDS011;34758;42.148;24.744;2023-11-22T01:47:54;21.50;;;13.45;;
48951;SDS011;34758;42.148;24.744;2023-11-22T01:50:22;23.02;;;13.45;;
48951;SDS011;34758;42.148;24.744;2023-11-22T01:52:50;18.88;;;12.73;;
48951;SDS011;34758;42.148;24.744;2023-11-22T01:55:19;20.65;;;13.40;;
48951;SDS011;34758;42.148;24.744;2023-11-22T01:57:51;19.20;;;13.82;;
48951;SDS011;34758;42.148;24.744;2023-11-22T02:00:21;21.05;;;13.70;;
48951;SDS011;34758;42.148;24.744;2023-11-22T02:02:56;21.73;;;13.95;;
48951;SDS011;34758;42.148;24.744;2023-11-22T02:05:23;20.30;;;13.30;;
48951;SDS011;34758;42.148;24.744;2023-11-22T02:07:50;20.23;;;13.30;;
48951;SDS011;34758;42.148;24.744;2023-11-22T02:10:18;19.33;;;13.95;;
48951;SDS011;34758;42.148;24.744;2023-11-22T02:12:47;24.25;;;14.85;;
48951;SDS011;34758;42.148;24.744;2023-11-22T02:15:14;21.17;;;14.18;;
48951;SDS011;34758;42.148;24.744;2023-11-22T02:17:42;20.80;;;14.23;;
48951;SDS011;34758;42.148;24.744;2023-11-22T02:20:14;21.65;;;14.50;;
48951;SDS011;34758;42.148;24.744;2023-11-22T02:22:44;26.00;;;14.77;;
48951;SDS011;34758;42.148;24.744;2023-11-22T02:25:39;21.50;;;15.45;;
48951;SDS011;34758;42.148;24.744;2023-11-22T02:28:07;26.13;;;15.02;;
48951;SDS011;34758;42.148;24.744;2023-11-22T02:30:36;22.25;;;14.10;;
48951;SDS011;34758;42.148;24.744;2023-11-22T02:33:04;22.83;;;15.32;;
48951;SDS011;34758;42.148;24.744;2023-11-22T02:35:33;21.13;;;14.40;;
48951;SDS011;34758;42.148;24.744;2023-11-22T02:38:02;24.42;;;15.10;;
48951;SDS011;34758;42.148;24.744;2023-11-22T02:40:32;24.73;;;15.80;;
48951;SDS011;34758;42.148;24.744;2023-11-22T02:42:59;23.23;;;14.35;;
48951;SDS011;34758;42.148;24.744;2023-11-22T02:45:34;21.10;;;14.05;;
48951;SDS011;34758;42.148;24.744;2023-11-22T02:48:01;20.30;;;12.93;;
48951;SDS011;34758;42.148;24.744;2023-11-22T02:50:30;23.45;;;14.25;;
48951;SDS011;34758;42.148;24.744;2023-11-22T02:53:00;21.70;;;13.40;;
48951;SDS011;34758;42.148;24.744;2023-11-22T02:55:27;23.00;;;15.13;;
48951;SDS011;34758;42.148;24.744;2023-11-22T02:57:56;19.83;;;14.57;;
48951;SDS011;34758;42.148;24.744;2023-11-22T03:00:24;23.10;;;14.45;;
48951;SDS011;34758;42.148;24.744;2023-11-22T03:02:52;23.35;;;15.00;;
48951;SDS011;34758;42.148;24.744;2023-11-22T03:05:23;23.83;;;15.13;;
48951;SDS011;34758;42.148;24.744;2023-11-22T03:07:50;18.75;;;13.43;;
48951;SDS011;34758;42.148;24.744;2023-11-22T03:10:17;23.70;;;14.40;;
48951;SDS011;34758;42.148;24.744;2023-11-22T03:12:44;24.20;;;14.60;;
48951;SDS011;34758;42.148;24.744;2023-11-22T03:15:13;22.35;;;14.05;;
48951;SDS011;34758;42.148;24.744;2023-11-22T03:17:40;22.08;;;14.05;;
48951;SDS011;34758;42.148;24.744;2023-11-22T03:20:09;17.85;;;13.65;;
48951;SDS011;34758;42.148;24.744;2023-11-22T03:22:37;18.02;;;13.85;;
48951;SDS011;34758;42.148;24.744;2023-11-22T03:25:07;23.83;;;15.02;;
48951;SDS011;34758;42.148;24.744;2023-11-22T03:27:35;24.33;;;14.60;;
48951;SDS011;34758;42.148;24.744;2023-11-22T03:30:02;22.27;;;14.98;;
48951;SDS011;34758;42.148;24.744;2023-11-22T03:32:39;19.67;;;13.40;;
48951;SDS011;34758;42.148;24.744;2023-11-22T03:35:07;21.48;;;14.30;;
48951;SDS011;34758;42.148;24.744;2023-11-22T03:37:36;19.75;;;13.75;;
48951;SDS011;34758;42.148;24.744;2023-11-22T03:40:04;22.25;;;14.00;;
48951;SDS011;34758;42.148;24.744;2023-11-22T03:42:32;21.42;;;13.60;;
48951;SDS011;34758;42.148;24.744;2023-11-22T03:45:01;19.95;;;14.02;;
48951;SDS011;34758;42.148;24.744;2023-11-22T03:47:28;22.10;;;14.40;;
48951;SDS011;34758;42.148;24.744;2023-11-22T03:50:01;21.73;;;14.10;;
48951;SDS011;34758;42.148;24.744;2023-11-22T03:52:28;22.27;;;13.82;;
48951;SDS011;34758;42.148;24.744;2023-11-22T03:54:56;20.67;;;14.30;;
48951;SDS011;34758;42.148;24.744;2023-11-22T03:57:26;21.73;;;14.23;;
48951;SDS011;34758;42.148;24.744;2023-11-22T03:59:54;21.17;;;13.75;;
48951;SDS011;34758;42.148;24.744;2023-11-22T04:02:21;20.95;;;13.90;;
48951;SDS011;34758;42.148;24.744;2023-11-22T04:04:52;22.42;;;14.85;;
48951;SDS011;34758;42.148;24.744;2023-11-22T04:07:25;20.65;;;14.07;;
48951;SDS011;34758;42.148;24.744;2023-11-22T04:09:55;20.42;;;14.50;;
48951;SDS011;34758;42.148;24.744;2023-11-22T04:12:21;20.33;;;14.32;;
48951;SDS011;34758;42.148;24.744;2023-11-22T04:14:50;20.15;;;13.05;;
48951;SDS011;34758;42.148;24.744;2023-11-22T04:17:18;22.02;;;13.52;;
48951;SDS011;34758;42.148;24.744;2023-11-22T04:19:48;21.33;;;13.73;;
48951;SDS011;34758;42.148;24.744;2023-11-22T04:22:16;22.92;;;14.48;;
48951;SDS011;34758;42.148;24.744;2023-11-22T04:24:45;22.80;;;13.80;;
48951;SDS011;34758;42.148;24.744;2023-11-22T04:27:12;21.30;;;13.95;;
48951;SDS011;34758;42.148;24.744;2023-11-22T04:29:39;20.77;;;13.45;;
48951;SDS011;34758;42.148;24.744;2023-11-22T04:32:09;22.63;;;14.30;;
48951;SDS011;34758;42.148;24.744;2023-11-22T04:34:36;22.85;;;13.85;;
48951;SDS011;34758;42.148;24.744;2023-11-22T04:37:03;18.20;;;12.82;;
48951;SDS011;34758;42.148;24.744;2023-11-22T04:39:30;21.73;;;13.32;;
48951;SDS011;34758;42.148;24.744;2023-11-22T04:42:00;20.50;;;12.68;;
48951;SDS011;34758;42.148;24.744;2023-11-22T04:44:30;20.20;;;12.77;;
48951;SDS011;34758;42.148;24.744;2023-11-22T04:46:57;23.15;;;13.77;;
48951;SDS011;34758;42.148;24.744;2023-11-22T04:49:25;19.88;;;13.75;;
48951;SDS011;34758;42.148;24.744;2023-11-22T04:51:53;19.23;;;12.65;;
48951;SDS011;34758;42.148;24.744;2023-11-22T04:54:20;21.92;;;13.07;;
48951;SDS011;34758;42.148;24.744;2023-11-22T04:56:50;17.75;;;12.25;;
48951;SDS011;34758;42.148;24.744;2023-11-22T04:59:20;17.50;;;11.77;;
48951;SDS011;34758;42.148;24.744;2023-11-22T05:01:47;18.02;;;11.43;;
48951;SDS011;34758;42.148;24.744;2023-11-22T05:04:14;19.70;;;13.18;;
48951;SDS011;34758;42.148;24.744;2023-11-22T05:06:41;17.83;;;12.00;;
48951;SDS011;34758;42.148;24.744;2023-11-22T05:09:09;19.90;;;13.02;;
48951;SDS011;34758;42.148;24.744;2023-11-22T05:11:38;21.85;;;13.02;;
48951;SDS011;34758;42.148;24.744;2023-11-22T05:14:06;19.58;;;12.13;;
48951;SDS011;34758;42.148;24.744;2023-11-22T05:16:36;19.90;;;13.15;;
48951;SDS011;34758;42.148;24.744;2023-11-22T05:19:04;18.85;;;12.48;;
48951;SDS011;34758;42.148;24.744;2023-11-22T05:21:32;20.73;;;13.63;;
48951;SDS011;34758;42.148;24.744;2023-11-22T05:23:59;20.73;;;13.48;;
48951;SDS011;34758;42.148;24.744;2023-11-22T05:26:26;23.35;;;14.27;;
48951;SDS011;34758;42.148;24.744;2023-11-22T05:28:54;18.95;;;12.98;;
48951;SDS011;34758;42.148;24.744;2023-11-22T05:31:21;20.35;;;12.63;;
48951;SDS011;34758;42.148;24.744;2023-11-22T05:33:50;19.02;;;12.10;;
48951;SDS011;34758;42.148;24.744;2023-11-22T05:36:22;20.33;;;12.70;;
48951;SDS011;34758;42.148;24.744;2023-11-22T05:38:50;22.90;;;12.80;;
48951;SDS011;34758;42.148;24.744;2023-11-22T05:41:17;23.73;;;14.70;;
48951;SDS011;34758;42.148;24.744;2023-11-22T05:43:45;20.52;;;13.02;;
48951;SDS011;34758;42.148;24.744;2023-11-22T05:46:13;21.95;;;13.15;;
48951;SDS011;34758;42.148;24.744;2023-11-22T05:48:46;18.92;;;12.45;;
48951;SDS011;34758;42.148;24.744;2023-11-22T05:51:17;22.63;;;13.40;;
48951;SDS011;34758;42.148;24.744;2023-11-22T05:53:45;25.52;;;13.75;;
48951;SDS011;34758;42.148;24.744;2023-11-22T05:56:13;22.83;;;13.90;;
48951;SDS011;34758;42.148;24.744;2023-11-22T05:58:40;22.17;;;13.15;;
48951;SDS011;34758;42.148;24.744;2023-11-22T06:01:08;21.73;;;13.20;;
48951;SDS011;34758;42.148;24.744;2023-11-22T06:03:38;20.02;;;11.93;;
48951;SDS011;34758;42.148;24.744;2023-11-22T06:06:05;21.00;;;12.60;;
48951;SDS011;34758;42.148;24.744;2023-11-22T06:08:33;24.23;;;12.85;;
48951;SDS011;34758;42.148;24.744;2023-11-22T06:11:00;22.17;;;13.65;;
48951;SDS011;34758;42.148;24.744;2023-11-22T06:13:28;24.55;;;14.80;;
48951;SDS011;34758;42.148;24.744;2023-11-22T06:15:55;21.88;;;14.77;;
48951;SDS011;34758;42.148;24.744;2023-11-22T06:18:22;21.02;;;12.70;;
48951;SDS011;34758;42.148;24.744;2023-11-22T06:23:23;20.73;;;12.10;;
48951;SDS011;34758;42.148;24.744;2023-11-22T06:25:54;19.17;;;12.02;;
48951;SDS011;34758;42.148;24.744;2023-11-22T06:28:20;21.27;;;13.40;;
48951;SDS011;34758;42.148;24.744;2023-11-22T06:30:49;22.95;;;13.20;;
48951;SDS011;34758;42.148;24.744;2023-11-22T06:33:16;18.25;;;11.90;;
48951;SDS011;34758;42.148;24.744;2023-11-22T06:35:44;20.67;;;13.05;;
48951;SDS011;34758;42.148;24.744;2023-11-22T06:38:12;21.98;;;12.43;;
48951;SDS011;34758;42.148;24.744;2023-11-22T06:40:38;20.45;;;12.82;;
48951;SDS011;34758;42.148;24.744;2023-11-22T06:43:10;18.30;;;12.43;;
48951;SDS011;34758;42.148;24.744;2023-11-22T06:45:38;19.83;;;11.90;;
48951;SDS011;34758;42.148;24.744;2023-11-22T06:48:07;17.23;;;11.48;;
48951;SDS011;34758;42.148;24.744;2023-11-22T06:50:36;18.23;;;12.32;;
48951;SDS011;34758;42.148;24.744;2023-11-22T06:53:03;21.13;;;13.13;;
48951;SDS011;34758;42.148;24.744;2023-11-22T06:55:31;22.05;;;13.75;;
48951;SDS011;34758;42.148;24.744;2023-11-22T06:58:00;21.65;;;12.10;;
48951;SDS011;34758;42.148;24.744;2023-11-22T07:00:31;21.67;;;13.02;;
48951;SDS011;34758;42.148;24.744;2023-11-22T07:02:59;18.75;;;12.60;;
48951;SDS011;34758;42.148;24.744;2023-11-22T07:05:26;18.40;;;13.23;;
48951;SDS011;34758;42.148;24.744;2023-11-22T07:07:55;19.55;;;13.77;;
48951;SDS011;34758;42.148;24.744;2023-11-22T07:10:22;21.58;;;14.25;;
48951;SDS011;34758;42.148;24.744;2023-11-22T07:12:52;22.30;;;12.85;;
48951;SDS011;34758;42.148;24.744;2023-11-22T07:15:21;20.38;;;12.10;;
48951;SDS011;34758;42.148;24.744;2023-11-22T07:17:50;18.95;;;12.20;;
48951;SDS011;34758;42.148;24.744;2023-11-22T07:20:17;22.77;;;13.30;;
48951;SDS011;34758;42.148;24.744;2023-11-22T07:22:49;18.75;;;12.20;;
48951;SDS011;34758;42.148;24.744;2023-11-22T07:25:20;18.70;;;11.40;;
48951;SDS011;34758;42.148;24.744;2023-11-22T07:27:50;19.95;;;12.25;;
48951;SDS011;34758;42.148;24.744;2023-11-22T07:30:18;17.17;;;12.80;;
48951;SDS011;34758;42.148;24.744;2023-11-22T07:32:49;22.75;;;12.73;;
48951;SDS011;34758;42.148;24.744;2023-11-22T07:35:24;24.90;;;14.13;;
48951;SDS011;34758;42.148;24.744;2023-11-22T07:37:54;22.20;;;12.30;;
48951;SDS011;34758;42.148;24.744;2023-11-22T07:40:23;23.40;;;12.95;;
48951;SDS011;34758;42.148;24.744;2023-11-22T07:42:50;22.50;;;14.23;;
48951;SDS011;34758;42.148;24.744;2023-11-22T07:45:20;19.77;;;12.55;;
48951;SDS011;34758;42.148;24.744;2023-11-22T07:47:50;25.80;;;14.80;;
48951;SDS011;34758;42.148;24.744;2023-11-22T07:50:18;28.08;;;15.52;;
48951;SDS011;34758;42.148;24.744;2023-11-22T07:52:47;23.52;;;14.65;;
48951;SDS011;34758;42.148;24.744;2023-11-22T07:55:15;23.92;;;15.05;;
48951;SDS011;34758;42.148;24.744;2023-11-22T07:57:43;27.25;;;16.23;;
48951;SDS011;34758;42.148;24.744;2023-11-22T08:00:12;27.38;;;14.60;;
48951;SDS011;34758;42.148;24.744;2023-11-22T08:02:45;29.10;;;15.80;;
48951;SDS011;34758;42.148;24.744;2023-11-22T08:05:15;25.33;;;14.98;;
48951;SDS011;34758;42.148;24.744;2023-11-22T08:07:47;34.10;;;17.05;;
48951;SDS011;34758;42.148;24.744;2023-11-22T08:10:14;25.30;;;17.25;;
48951;SDS011;34758;42.148;24.744;2023-11-22T08:12:45;34.53;;;17.95;;
48951;SDS011;34758;42.148;24.744;2023-11-22T08:15:15;31.67;;;16.55;;
48951;SDS011;34758;42.148;24.744;2023-11-22T08:17:43;32.47;;;17.35;;
48951;SDS011;34758;42.148;24.744;2023-11-22T08:20:14;33.00;;;18.38;;
48951;SDS011;34758;42.148;24.744;2023-11-22T08:22:43;30.48;;;18.23;;
48951;SDS011;34758;42.148;24.744;2023-11-22T08:25:11;35.35;;;17.08;;
48951;SDS011;34758;42.148;24.744;2023-11-22T08:27:38;27.90;;;17.48;;
48951;SDS011;34758;42.148;24.744;2023-11-22T08:30:07;36.40;;;18.70;;
48951;SDS011;34758;42.148;24.744;2023-11-22T08:32:39;29.98;;;18.50;;
48951;SDS011;34758;42.148;24.744;2023-11-22T08:35:07;31.67;;;17.70;;
48951;SDS011;34758;42.148;24.744;2023-11-22T08:37:38;27.42;;;17.17;;
48951;SDS011;34758;42.148;24.744;2023-11-22T08:40:07;31.48;;;17.60;;
48951;SDS011;34758;42.148;24.744;2023-11-22T08:42:39;33.50;;;18.30;;
48951;SDS011;34758;42.148;24.744;2023-11-22T08:45:14;35.45;;;16.30;;
48951;SDS011;34758;42.148;24.744;2023-11-22T08:47:45;30.23;;;17.40;;
48951;SDS011;34758;42.148;24.744;2023-11-22T08:50:12;32.15;;;18.73;;
48951;SDS011;34758;42.148;24.744;2023-11-22T08:52:43;26.85;;;18.23;;
48951;SDS011;34758;42.148;24.744;2023-11-22T08:55:12;33.50;;;17.65;;
48951;SDS011;34758;42.148;24.744;2023-11-22T08:57:42;30.00;;;16.77;;
48951;SDS011;34758;42.148;24.744;2023-11-22T09:00:11;24.45;;;16.42;;
48951;SDS011;34758;42.148;24.744;2023-11-22T09:02:40;25.15;;;16.50;;
48951;SDS011;34758;42.148;24.744;2023-11-22T09:05:10;26.00;;;17.95;;
48951;SDS011;34758;42.148;24.744;2023-11-22T09:07:38;30.67;;;19.67;;
48951;SDS011;34758;42.148;24.744;2023-11-22T09:10:07;28.92;;;19.23;;
48951;SDS011;34758;42.148;24.744;2023-11-22T09:12:38;33.42;;;19.10;;
48951;SDS011;34758;42.148;24.744;2023-11-22T09:15:06;29.00;;;18.15;;
48951;SDS011;34758;42.148;24.744;2023-11-22T09:17:35;31.73;;;18.65;;
48951;SDS011;34758;42.148;24.744;2023-11-22T09:20:08;26.48;;;18.48;;
48951;SDS011;34758;42.148;24.744;2023-11-22T09:22:38;27.35;;;17.90;;
48951;SDS011;34758;42.148;24.744;2023-11-22T09:25:12;24.77;;;18.13;;
48951;SDS011;34758;42.148;24.744;2023-11-22T09:27:39;21.05;;;15.10;;
48951;SDS011;34758;42.148;24.744;2023-11-22T09:30:08;23.92;;;15.27;;
48951;SDS011;34758;42.148;24.744;2023-11-22T09:32:44;24.38;;;16.80;;
48951;SDS011;34758;42.148;24.744;2023-11-22T09:35:12;24.13;;;15.27;;
48951;SDS011;34758;42.148;24.744;2023-11-22T09:37:40;21.50;;;13.80;;
48951;SDS011;34758;42.148;24.744;2023-11-22T09:40:10;23.67;;;13.57;;
48951;SDS011;34758;42.148;24.744;2023-11-22T09:42:44;19.17;;;13.15;;
48951;SDS011;34758;42.148;24.744;2023-11-22T09:45:17;18.73;;;13.23;;
48951;SDS011;34758;42.148;24.744;2023-11-22T09:47:45;19.73;;;12.88;;
48951;SDS011;34758;42.148;24.744;2023-11-22T09:50:13;17.35;;;11.20;;
48951;SDS011;34758;42.148;24.744;2023-11-22T09:52:43;17.10;;;12.57;;
48951;SDS011;34758;42.148;24.744;2023-11-22T09:55:13;16.50;;;11.73;;
48951;SDS011;34758;42.148;24.744;2023-11-22T09:57:42;20.30;;;12.82;;
48951;SDS011;34758;42.148;24.744;2023-11-22T10:00:10;19.58;;;12.80;;
48951;SDS011;34758;42.148;24.744;2023-11-22T10:02:39;19.25;;;12.15;;
48951;SDS011;34758;42.148;24.744;2023-11-22T10:05:07;18.83;;;13.07;;
48951;SDS011;34758;42.148;24.744;2023-11-22T10:07:35;18.48;;;12.98;;
48951;SDS011;34758;42.148;24.744;2023-11-22T10:10:03;19.63;;;13.45;;
48951;SDS011;34758;42.148;24.744;2023-11-22T10:12:37;19.85;;;13.48;;
48951;SDS011;34758;42.148;24.744;2023-11-22T10:15:11;25.52;;;15.23;;
48951;SDS011;34758;42.148;24.744;2023-11-22T10:17:40;25.08;;;16.67;;
48951;SDS011;34758;42.148;24.744;2023-11-22T10:20:07;24.83;;;17.42;;
48951;SDS011;34758;42.148;24.744;2023-11-22T10:22:46;24.67;;;16.50;;
48951;SDS011;34758;42.148;24.744;2023-11-22T10:25:14;25.25;;;15.98;;
48951;SDS011;34758;42.148;24.744;2023-11-22T10:27:45;19.67;;;13.50;;
48951;SDS011;34758;42.148;24.744;2023-11-22T10:30:16;20.33;;;14.98;;
48951;SDS011;34758;42.148;24.744;2023-11-22T10:32:45;23.08;;;14.27;;
48951;SDS011;34758;42.148;24.744;2023-11-22T10:35:12;21.65;;;13.88;;
48951;SDS011;34758;42.148;24.744;2023-11-22T10:37:41;24.52;;;17.60;;
48951;SDS011;34758;42.148;24.744;2023-11-22T10:40:10;24.50;;;15.30;;
48951;SDS011;34758;42.148;24.744;2023-11-22T10:42:40;21.38;;;14.85;;
48951;SDS011;34758;42.148;24.744;2023-11-22T10:45:10;17.30;;;12.73;;
48951;SDS011;34758;42.148;24.744;2023-11-22T10:47:38;17.75;;;12.63;;
48951;SDS011;34758;42.148;24.744;2023-11-22T10:50:08;14.40;;;11.68;;
48951;SDS011;34758;42.148;24.744;2023-11-22T10:52:37;19.33;;;12.23;;
48951;SDS011;34758;42.148;24.744;2023-11-22T10:55:08;13.50;;;10.57;;
48951;SDS011;34758;42.148;24.744;2023-11-22T10:57:39;15.98;;;11.05;;
48951;SDS011;34758;42.148;24.744;2023-11-22T11:00:11;15.83;;;11.43;;
48951;SDS011;34758;42.148;24.744;2023-11-22T11:02:41;13.15;;;9.90;;
48951;SDS011;34758;42.148;24.744;2023-11-22T11:05:11;14.90;;;10.25;;
48951;SDS011;34758;42.148;24.744;2023-11-22T11:07:45;13.88;;;10.18;;
48951;SDS011;34758;42.148;24.744;2023-11-22T11:10:20;14.23;;;10.98;;
48951;SDS011;34758;42.148;24.744;2023-11-22T11:12:48;15.60;;;11.77;;
48951;SDS011;34758;42.148;24.744;2023-11-22T11:15:20;11.88;;;10.50;;
48951;SDS011;34758;42.148;24.744;2023-11-22T11:17:48;17.27;;;11.77;;
48951;SDS011;34758;42.148;24.744;2023-11-22T11:20:17;15.30;;;10.82;;
48951;SDS011;34758;42.148;24.744;2023-11-22T11:22:49;17.38;;;11.45;;
48951;SDS011;34758;42.148;24.744;2023-11-22T11:25:17;17.63;;;12.00;;
48951;SDS011;34758;42.148;24.744;2023-11-22T11:27:45;15.38;;;11.05;;
48951;SDS011;34758;42.148;24.744;2023-11-22T11:33:09;15.35;;;11.75;;
48951;SDS011;34758;42.148;24.744;2023-11-22T11:35:38;14.73;;;10.55;;
48951;SDS011;34758;42.148;24.744;2023-11-22T11:38:11;16.73;;;11.20;;
48951;SDS011;34758;42.148;24.744;2023-11-22T11:40:40;13.38;;;10.10;;
48951;SDS011;34758;42.148;24.744;2023-11-22T11:43:07;17.02;;;10.90;;
48951;SDS011;34758;42.148;24.744;2023-11-22T11:45:36;13.82;;;10.52;;
48951;SDS011;34758;42.148;24.744;2023-11-22T11:48:06;15.05;;;10.65;;
48951;SDS011;34758;42.148;24.744;2023-11-22T11:50:34;17.20;;;10.80;;
48951;SDS011;34758;42.148;24.744;2023-11-22T11:53:01;13.57;;;9.95;;
48951;SDS011;34758;42.148;24.744;2023-11-22T11:55:30;15.80;;;10.50;;
48951;SDS011;34758;42.148;24.744;2023-11-22T11:58:02;14.30;;;10.15;;
48951;SDS011;34758;42.148;24.744;2023-11-22T12:00:32;14.68;;;8.93;;
48951;SDS011;34758;42.148;24.744;2023-11-22T12:02:59;12.35;;;8.70;;
48951;SDS011;34758;42.148;24.744;2023-11-22T12:05:29;13.13;;;9.25;;
48951;SDS011;34758;42.148;24.744;2023-11-22T12:07:56;14.65;;;9.02;;
48951;SDS011;34758;42.148;24.744;2023-11-22T12:10:25;15.00;;;9.90;;
48951;SDS011;34758;42.148;24.744;2023-11-22T12:12:57;17.60;;;10.98;;
48951;SDS011;34758;42.148;24.744;2023-11-22T12:15:24;12.55;;;9.40;;
48951;SDS011;34758;42.148;24.744;2023-11-22T12:17:55;15.38;;;9.80;;
48951;SDS011;34758;42.148;24.744;2023-11-22T12:20:22;17.88;;;10.20;;
48951;SDS011;34758;42.148;24.744;2023-11-22T12:22:53;14.50;;;11.02;;
48951;SDS011;34758;42.148;24.744;2023-11-22T12:25:21;14.55;;;9.82;;
48951;SDS011;34758;42.148;24.744;2023-11-22T12:27:48;13.18;;;9.63;;
48951;SDS011;34758;42.148;24.744;2023-11-22T12:30:28;16.65;;;10.20;;
48951;SDS011;34758;42.148;24.744;2023-11-22T12:33:02;14.32;;;9.70;;
48951;SDS011;34758;42.148;24.744;2023-11-22T12:35:32;13.27;;;9.77;;
48951;SDS011;34758;42.148;24.744;2023-11-22T12:38:02;12.85;;;10.07;;
48951;SDS011;34758;42.148;24.744;2023-11-22T12:40:32;12.70;;;9.88;;
48951;SDS011;34758;42.148;24.744;2023-11-22T12:43:00;16.02;;;10.57;;
48951;SDS011;34758;42.148;24.744;2023-11-22T12:45:29;14.35;;;10.35;;
48951;SDS011;34758;42.148;24.744;2023-11-22T12:48:19;14.88;;;10.70;;
48951;SDS011;34758;42.148;24.744;2023-11-22T12:50:48;11.43;;;10.02;;
48951;SDS011;34758;42.148;24.744;2023-11-22T12:53:22;13.20;;;10.55;;
48951;SDS011;34758;42.148;24.744;2023-11-22T12:55:52;13.93;;;9.85;;
48951;SDS011;34758;42.148;24.744;2023-11-22T12:58:22;12.73;;;9.75;;
48951;SDS011;34758;42.148;24.744;2023-11-22T13:00:50;14.40;;;10.13;;
48951;SDS011;34758;42.148;24.744;2023-11-22T13:03:23;12.63;;;9.98;;
48951;SDS011;34758;42.148;24.744;2023-11-22T13:05:51;15.57;;;10.60;;
48951;SDS011;34758;42.148;24.744;2023-11-22T13:08:20;14.27;;;10.07;;
48951;SDS011;34758;42.148;24.744;2023-11-22T13:10:50;13.57;;;10.90;;
48951;SDS011;34758;42.148;24.744;2023-11-22T13:13:19;15.57;;;10.77;;
48951;SDS011;34758;42.148;24.744;2023-11-22T13:15:46;16.08;;;11.00;;
48951;SDS011;34758;42.148;24.744;2023-11-22T13:18:15;16.83;;;11.18;;
48951;SDS011;34758;42.148;24.744;2023-11-22T13:20:42;16.80;;;11.52;;
48951;SDS011;34758;42.148;24.744;2023-11-22T13:23:12;17.20;;;11.38;;
48951;SDS011;34758;42.148;24.744;2023-11-22T13:25:43;13.40;;;10.63;;
48951;SDS011;34758;42.148;24.744;2023-11-22T13:28:11;15.25;;;11.07;;
48951;SDS011;34758;42.148;24.744;2023-11-22T13:30:38;16.17;;;11.43;;
48951;SDS011;34758;42.148;24.744;2023-11-22T13:33:05;14.13;;;10.68;;
48951;SDS011;34758;42.148;24.744;2023-11-22T13:35:33;14.30;;;11.40;;
48951;SDS011;34758;42.148;24.744;2023-11-22T13:38:03;14.73;;;11.30;;
48951;SDS011;34758;42.148;24.744;2023-11-22T13:40:37;16.70;;;11.88;;
48951;SDS011;34758;42.148;24.744;2023-11-22T13:43:07;19.77;;;12.75;;
48951;SDS011;34758;42.148;24.744;2023-11-22T13:45:40;17.45;;;12.35;;
48951;SDS011;34758;42.148;24.744;2023-11-22T13:48:10;17.45;;;10.90;;
48951;SDS011;34758;42.148;24.744;2023-11-22T13:50:38;16.50;;;12.40;;
48951;SDS011;34758;42.148;24.744;2023-11-22T13:53:05;16.70;;;12.00;;
48951;SDS011;34758;42.148;24.744;2023-11-22T13:55:35;14.52;;;11.85;;
48951;SDS011;34758;42.148;24.744;2023-11-22T13:58:04;18.80;;;12.45;;
48951;SDS011;34758;42.148;24.744;2023-11-22T14:00:34;17.92;;;12.95;;
48951;SDS011;34758;42.148;24.744;2023-11-22T14:03:04;17.03;;;12.93;;
48951;SDS011;34758;42.148;24.744;2023-11-22T14:05:32;16.85;;;12.70;;
48951;SDS011;34758;42.148;24.744;2023-11-22T14:08:03;18.80;;;13.25;;
48951;SDS011;34758;42.148;24.744;2023-11-22T14:10:32;18.60;;;13.75;;
48951;SDS011;34758;42.148;24.744;2023-11-22T14:13:00;18.23;;;12.80;;
48951;SDS011;34758;42.148;24.744;2023-11-22T14:15:37;17.80;;;13.38;;
48951;SDS011;34758;42.148;24.744;2023-11-22T14:18:05;21.80;;;14.90;;
48951;SDS011;34758;42.148;24.744;2023-11-22T14:20:31;22.20;;;15.48;;
48951;SDS011;34758;42.148;24.744;2023-11-22T14:23:00;19.40;;;13.85;;
48951;SDS011;34758;42.148;24.744;2023-11-22T14:25:32;23.13;;;15.23;;